Time;durP1;ratioP1;P1;durP2;ratioP2;P2;SDS_P1;SDS_P2;PMS_P1;PMS_P2;Temp;Humidity;BMP_temperature;BMP_pressure;BME280_temperature;BME280_humidity;BME280_pressure;Samples;Min_cycle;Max_cycle;Signal;HPM_P1;HPM_P2
2023/03/11 00:00:17;;;;;;;18.13;16.33;;;;;;;-0.11;100.00;98718.63;5035144;28;20202;-80
2023/03/11 00:02:46;;;;;;;18.47;16.53;;;;;;;-0.22;100.00;98716.09;5034950;28;20255;-81
2023/03/11 00:05:16;;;;;;;16.63;15.03;;;;;;;-0.19;100.00;98738.31;5035972;28;20228;-79
2023/03/11 00:07:42;;;;;;;16.67;14.23;;;;;;;-0.19;100.00;98730.63;5035582;28;20272;-79
2023/03/11 00:10:14;;;;;;;15.40;14.00;;;;;;;-0.17;100.00;98741.72;5050304;28;20251;-80
2023/03/11 00:12:40;;;;;;;14.27;12.77;;;;;;;-0.28;100.00;98735.75;5055390;28;20229;-79
2023/03/11 00:15:08;;;;;;;13.63;12.20;;;;;;;-0.27;100.00;98745.16;5055086;28;20205;-80
2023/03/11 00:17:34;;;;;;;13.23;12.03;;;;;;;-0.15;100.00;98741.72;5055463;28;20275;-80
2023/03/11 00:20:03;;;;;;;12.13;11.10;;;;;;;-0.12;100.00;98760.53;5055598;28;20205;-81
2023/03/11 00:22:30;;;;;;;11.43;10.43;;;;;;;-0.13;100.00;98757.94;5054666;28;20292;-80
2023/03/11 00:24:56;;;;;;;12.23;11.07;;;;;;;-0.22;100.00;98762.25;5054901;28;20283;-79
2023/03/11 00:27:22;;;;;;;12.70;11.40;;;;;;;-0.38;100.00;98775.09;5054597;28;20211;-79
2023/03/11 00:29:49;;;;;;;12.30;11.10;;;;;;;-0.39;100.00;98770.84;5054019;28;20209;-80
2023/03/11 00:32:15;;;;;;;12.03;10.93;;;;;;;-0.28;100.00;98775.09;5044197;28;20295;-78
2023/03/11 00:34:41;;;;;;;11.87;10.77;;;;;;;-0.30;100.00;98778.50;5034840;28;20208;-78
2023/03/11 00:37:09;;;;;;;12.67;11.47;;;;;;;-0.28;100.00;98780.22;5034828;28;20300;-79
2023/03/11 00:39:35;;;;;;;11.77;10.77;;;;;;;-0.27;100.00;98784.47;5034535;28;20234;-78
2023/03/11 00:42:02;;;;;;;11.57;10.47;;;;;;;-0.24;100.00;98781.03;5035302;28;20281;-79
2023/03/11 00:44:29;;;;;;;11.57;10.50;;;;;;;-0.28;100.00;98793.03;5036041;28;20206;-80
2023/03/11 00:46:55;;;;;;;9.80;8.70;;;;;;;-0.25;100.00;98793.00;5035057;28;20208;-80
2023/03/11 00:49:22;;;;;;;10.53;9.53;;;;;;;-0.39;100.00;98809.28;5035691;28;20248;-80
2023/03/11 00:51:48;;;;;;;9.93;9.03;;;;;;;-0.37;100.00;98826.38;5034795;28;20709;-82
2023/03/11 00:54:16;;;;;;;10.17;9.17;;;;;;;-0.36;100.00;98824.66;5034576;28;20260;-79
2023/03/11 00:56:42;;;;;;;10.43;9.50;;;;;;;-0.36;100.00;98829.78;5034536;28;20213;-80
2023/03/11 00:59:08;;;;;;;8.70;7.90;;;;;;;-0.35;100.00;98834.06;5035454;28;20210;-79
2023/03/11 01:01:34;;;;;;;10.23;9.23;;;;;;;-0.34;100.00;98826.34;5035099;28;20281;-80
2023/03/11 01:04:01;;;;;;;9.67;8.80;;;;;;;-0.35;100.00;98832.34;5034318;28;20210;-80
2023/03/11 01:06:27;;;;;;;8.03;7.30;;;;;;;-0.25;100.00;98840.88;5034359;28;20673;-80
2023/03/11 01:08:53;;;;;;;8.27;7.47;;;;;;;-0.30;100.00;98852.84;5035306;28;20234;-80
2023/03/11 01:11:21;;;;;;;7.30;6.60;;;;;;;-0.43;100.00;98869.94;5034802;28;20284;-79
2023/03/11 01:13:48;;;;;;;7.10;6.40;;;;;;;-0.34;100.00;98876.78;5034598;28;20209;-79
2023/03/11 01:16:14;;;;;;;6.20;5.70;;;;;;;-0.44;100.00;98883.59;5034283;28;20255;-79
2023/03/11 01:18:40;;;;;;;6.43;5.93;;;;;;;-0.33;100.00;98902.41;5034587;28;20268;-79
2023/03/11 01:21:07;;;;;;;5.10;4.70;;;;;;;-0.27;100.00;98915.22;5034012;28;20565;-80
2023/03/11 01:23:33;;;;;;;4.47;4.07;;;;;;;-0.31;100.00;98935.75;5034467;28;20623;-79
2023/03/11 01:25:59;;;;;;;5.00;4.00;;;;;;;-0.32;100.00;98955.38;5035117;28;20210;-80
2023/03/11 01:28:27;;;;;;;3.83;3.53;;;;;;;-0.38;100.00;98975.03;5034578;28;20740;-80
2023/03/11 01:30:53;;;;;;;4.50;4.10;;;;;;;-0.41;100.00;98984.44;5034281;28;20206;-79
2023/03/11 01:33:20;;;;;;;6.20;4.43;;;;;;;-0.47;100.00;98984.41;5034963;28;20225;-80
2023/03/11 01:35:48;;;;;;;4.87;4.47;;;;;;;-0.49;100.00;98991.25;5034744;28;20207;-80
2023/03/11 01:38:14;;;;;;;4.67;4.30;;;;;;;-0.45;100.00;98980.16;5034627;28;20206;-80
2023/03/11 01:40:43;;;;;;;4.20;3.80;;;;;;;-0.38;100.00;98981.00;5037245;28;20220;-79
2023/03/11 01:43:54;;;;;;;4.07;3.77;;;;;;;-0.34;100.00;98977.59;5039463;28;20248;-80
2023/03/11 01:46:24;;;;;;;5.47;4.93;;;;;;;-0.36;100.00;98989.56;4978061;28;20247;-78
2023/03/11 01:48:52;;;;;;;5.43;4.93;;;;;;;-0.38;100.00;98992.97;5025726;28;20215;-79
2023/03/11 01:51:24;;;;;;;4.90;4.50;;;;;;;-0.35;100.00;99010.94;5039185;28;20241;-80
2023/03/11 01:53:52;;;;;;;5.27;4.80;;;;;;;-0.38;100.00;99021.19;5038910;28;20206;-79
2023/03/11 01:56:19;;;;;;;5.70;5.20;;;;;;;-0.37;100.00;99026.31;5038527;28;20579;-80
2023/03/11 01:58:48;;;;;;;7.03;4.73;;;;;;;-0.37;100.00;99028.88;5038484;28;20209;-82
2023/03/11 02:01:16;;;;;;;5.47;4.97;;;;;;;-0.32;100.00;99034.84;5038321;28;20293;-79
2023/03/11 02:03:43;;;;;;;5.87;4.47;;;;;;;-0.19;100.00;99037.47;5038461;28;20680;-80
2023/03/11 02:06:13;;;;;;;5.13;4.63;;;;;;;-0.29;100.00;99042.56;5050380;28;20201;-80
2023/03/11 02:08:42;;;;;;;5.07;4.57;;;;;;;-0.39;100.00;99047.69;5057121;28;20236;-80
2023/03/11 02:11:11;;;;;;;4.87;4.47;;;;;;;-0.49;100.00;99057.03;5056522;28;20206;-80
2023/03/11 02:13:39;;;;;;;5.10;4.60;;;;;;;-0.43;100.00;99052.78;5057222;28;20209;-80
2023/03/11 02:16:06;;;;;;;5.00;4.53;;;;;;;-0.32;100.00;99057.91;5057777;28;20263;-80
2023/03/11 02:18:33;;;;;;;5.63;4.80;;;;;;;-0.34;100.00;99066.47;5057928;28;20209;-80
2023/03/11 02:21:07;;;;;;;4.70;4.27;;;;;;;-0.34;100.00;99081.84;5057715;28;20205;-79
2023/03/11 02:23:38;;;;;;;8.63;4.80;;;;;;;-0.39;100.00;99078.44;5057007;28;20235;-79
2023/03/11 02:26:10;;;;;;;4.80;4.40;;;;;;;-0.34;100.00;99077.56;5056709;28;20206;-80
2023/03/11 02:28:39;;;;;;;4.90;4.50;;;;;;;-0.39;100.00;99078.44;5057158;28;20625;-79
2023/03/11 02:31:06;;;;;;;5.83;5.33;;;;;;;-0.35;100.00;99078.44;5056777;28;20315;-80
2023/03/11 02:33:36;;;;;;;4.77;4.37;;;;;;;-0.47;100.00;99083.53;5037075;28;20280;-80
2023/03/11 02:36:02;;;;;;;5.03;4.63;;;;;;;-0.45;100.00;99085.25;5037180;28;20210;-81
2023/03/11 02:38:29;;;;;;;6.47;4.97;;;;;;;-0.47;100.00;99091.22;5036840;28;20578;-80
2023/03/11 02:40:57;;;;;;;5.23;4.73;;;;;;;-0.41;100.00;99094.66;5036596;28;20211;-79
2023/03/11 02:43:28;;;;;;;5.10;4.60;;;;;;;-0.44;100.00;99091.22;5037676;28;20206;-79
2023/03/11 02:45:56;;;;;;;6.00;4.63;;;;;;;-0.52;100.00;99095.47;5037805;28;20614;-81
2023/03/11 02:48:23;;;;;;;4.90;4.50;;;;;;;-0.48;100.00;99102.31;5036989;28;20210;-80
2023/03/11 02:50:50;;;;;;;4.97;4.13;;;;;;;-0.44;100.00;99115.16;5037392;28;20206;-79
2023/03/11 02:53:16;;;;;;;4.73;4.33;;;;;;;-0.50;100.00;99111.69;5036567;28;20226;-80
2023/03/11 02:55:42;;;;;;;4.30;4.00;;;;;;;-0.46;100.00;99119.41;5036876;28;20833;-80
2023/03/11 02:58:09;;;;;;;4.37;3.93;;;;;;;-0.43;100.00;99127.13;5037141;28;20206;-79
2023/03/11 03:00:36;;;;;;;5.30;4.80;;;;;;;-0.47;100.00;99139.94;5037508;28;20206;-81
2023/03/11 03:03:03;;;;;;;4.80;4.20;;;;;;;-0.51;100.00;99149.28;5036361;28;20778;-80
2023/03/11 03:05:30;;;;;;;4.70;3.63;;;;;;;-0.75;100.00;99154.28;5036148;28;20310;-80
2023/03/11 03:07:56;;;;;;;5.07;4.60;;;;;;;-0.66;100.00;99157.75;5036475;28;20209;-80
2023/03/11 03:10:23;;;;;;;5.23;4.73;;;;;;;-0.52;100.00;99157.81;5037256;28;20227;-80
2023/03/11 03:12:49;;;;;;;4.57;4.17;;;;;;;-0.56;100.00;99158.66;5037883;28;20230;-80
2023/03/11 03:15:16;;;;;;;5.87;4.43;;;;;;;-0.49;100.00;99162.97;5038143;28;20634;-80
2023/03/11 03:17:42;;;;;;;4.20;3.30;;;;;;;-0.67;100.00;99168.88;5037764;28;20287;-80
2023/03/11 03:20:12;;;;;;;6.57;4.00;;;;;;;-0.71;100.00;99173.97;5037285;28;20210;-80
2023/03/11 03:22:39;;;;;;;4.97;4.03;;;;;;;-0.65;100.00;99176.56;5037414;28;20305;-80
2023/03/11 03:25:07;;;;;;;7.10;4.03;;;;;;;-0.60;100.00;99192.81;5037089;28;20818;-80
2023/03/11 03:27:34;;;;;;;5.47;4.80;;;;;;;-0.59;100.00;99197.09;5037066;28;20203;-80
2023/03/11 03:30:00;;;;;;;6.57;4.07;;;;;;;-0.64;100.00;99191.94;5037519;28;20211;-80
2023/03/11 03:32:27;;;;;;;5.43;4.23;;;;;;;-0.51;100.00;99197.16;5036710;28;20239;-81
2023/03/11 03:34:57;;;;;;;5.40;4.53;;;;;;;-0.65;100.00;99212.44;5036732;28;20266;-80
2023/03/11 03:37:26;;;;;;;4.40;3.43;;;;;;;-0.61;100.00;99204.78;5037123;28;20238;-81
2023/03/11 03:39:52;;;;;;;5.67;4.17;;;;;;;-0.66;100.00;99203.88;5036337;28;20211;-80
2023/03/11 03:42:19;;;;;;;4.70;4.13;;;;;;;-0.57;100.00;99208.22;5036662;28;20321;-81
2023/03/11 03:44:46;;;;;;;4.17;3.70;;;;;;;-0.53;100.00;99214.22;5037033;28;20232;-80
2023/03/11 03:47:12;;;;;;;6.03;3.87;;;;;;;-0.48;100.00;99221.06;5037445;28;20260;-81
2023/03/11 03:49:38;;;;;;;8.03;3.90;;;;;;;-0.64;100.00;99240.63;5037941;28;20257;-80
2023/03/11 03:52:05;;;;;;;8.60;4.07;;;;;;;-0.75;100.00;99234.56;5038042;28;20256;-81
2023/03/11 03:54:33;;;;;;;3.60;3.27;;;;;;;-0.75;100.00;99238.81;5037925;28;20206;-80
2023/03/11 03:56:59;;;;;;;4.93;3.30;;;;;;;-0.70;100.00;99258.50;5037694;28;20206;-80
2023/03/11 03:59:25;;;;;;;4.90;3.50;;;;;;;-0.82;100.00;99269.53;5039248;28;20206;-81
2023/03/11 04:01:52;;;;;;;5.13;3.67;;;;;;;-0.70;100.00;99265.34;5039034;28;20234;-81
2023/03/11 04:04:18;;;;;;;6.20;3.50;;;;;;;-0.63;100.00;99269.69;5037935;28;20232;-81
2023/03/11 04:06:44;;;;;;;7.93;3.30;;;;;;;-0.72;100.00;99275.56;5039716;28;20207;-82
2023/03/11 04:09:11;;;;;;;6.20;3.40;;;;;;;-0.72;100.00;99278.13;5039426;28;20237;-82
2023/03/11 04:11:39;;;;;;;5.73;3.33;;;;;;;-0.60;100.00;99273.09;5039675;28;20222;-81
2023/03/11 04:14:06;;;;;;;4.57;3.13;;;;;;;-0.62;100.00;99277.34;5039334;28;20226;-81
2023/03/11 04:16:33;;;;;;;5.70;3.00;;;;;;;-0.69;100.00;99291.00;5039095;28;20596;-81
2023/03/11 04:18:59;;;;;;;10.27;3.57;;;;;;;-0.60;100.00;99287.63;5039227;28;20218;-80
2023/03/11 04:21:25;;;;;;;7.07;3.40;;;;;;;-0.66;100.00;99285.03;5038573;28;20723;-80
2023/03/11 04:23:52;;;;;;;3.07;2.57;;;;;;;-0.64;100.00;99285.88;5038802;28;20206;-81
2023/03/11 04:26:18;;;;;;;7.10;3.10;;;;;;;-0.84;100.00;99298.53;5040088;28;20271;-80
2023/03/11 04:28:46;;;;;;;4.80;3.70;;;;;;;-0.83;100.00;99290.88;5039420;28;20225;-80
2023/03/11 04:31:12;;;;;;;7.70;3.50;;;;;;;-0.83;100.00;99293.44;5037899;28;20233;-81
2023/03/11 04:33:38;;;;;;;3.27;2.70;;;;;;;-0.67;100.00;99293.56;5038398;28;20724;-80
2023/03/11 04:36:06;;;;;;;4.73;2.93;;;;;;;-0.66;100.00;99298.69;5037655;28;20750;-81
2023/03/11 04:38:32;;;;;;;5.17;2.93;;;;;;;-0.70;100.00;99302.06;5038479;28;20260;-80
2023/03/11 04:41:00;;;;;;;4.97;2.80;;;;;;;-0.63;100.00;99303.00;5038040;28;20280;-80
2023/03/11 04:43:26;;;;;;;6.87;3.47;;;;;;;-0.75;100.00;99311.44;5038431;28;20202;-80
2023/03/11 04:45:54;;;;;;;5.23;2.93;;;;;;;-0.81;100.00;99319.94;5037770;28;20206;-81
2023/03/11 04:48:20;;;;;;;4.23;2.80;;;;;;;-0.71;100.00;99320.03;5038313;28;20210;-81
2023/03/11 04:50:47;;;;;;;3.60;2.50;;;;;;;-0.70;100.00;99329.41;5037342;28;20206;-81
2023/03/11 04:53:13;;;;;;;4.60;3.10;;;;;;;-0.73;100.00;99334.50;5037265;28;20234;-80
2023/03/11 04:55:40;;;;;;;4.47;2.63;;;;;;;-0.63;100.00;99346.56;5037234;28;20233;-81
2023/03/11 04:58:07;;;;;;;3.37;2.70;;;;;;;-0.60;100.00;99346.56;5037566;28;20252;-81
2023/03/11 05:00:33;;;;;;;5.50;2.47;;;;;;;-0.67;100.00;99362.75;5037710;28;20256;-81
2023/03/11 05:03:01;;;;;;;7.77;2.80;;;;;;;-0.65;100.00;99363.63;5037306;28;20712;-80
2023/03/11 05:05:27;;;;;;;4.77;2.40;;;;;;;-0.67;100.00;99375.56;5037014;28;20677;-80
2023/03/11 05:07:53;;;;;;;4.30;2.37;;;;;;;-0.78;100.00;99372.03;5037589;28;20207;-80
2023/03/11 05:10:21;;;;;;;5.83;2.30;;;;;;;-0.84;100.00;99391.63;5037257;28;20263;-80
2023/03/11 05:12:48;;;;;;;4.53;2.13;;;;;;;-0.84;100.00;99399.31;5036731;28;20230;-81
2023/03/11 05:15:15;;;;;;;3.57;2.23;;;;;;;-0.87;100.00;99414.66;5038386;28;20668;-80
2023/03/11 05:17:41;;;;;;;2.63;1.90;;;;;;;-1.02;100.00;99417.91;5041947;28;20210;-80
2023/03/11 05:20:10;;;;;;;3.13;1.90;;;;;;;-1.08;100.00;99414.41;5042334;28;20206;-80
2023/03/11 05:22:37;;;;;;;3.43;2.17;;;;;;;-1.07;100.00;99403.31;5042030;28;20284;-80
2023/03/11 05:25:05;;;;;;;3.27;2.30;;;;;;;-1.06;100.00;99403.34;5041551;28;20275;-80
2023/03/11 05:27:31;;;;;;;4.73;2.00;;;;;;;-1.01;100.00;99393.16;5041530;28;20577;-81
2023/03/11 05:29:57;;;;;;;4.43;1.80;;;;;;;-0.91;100.00;99400.09;5041212;28;20206;-80
2023/03/11 05:32:24;;;;;;;6.07;1.97;;;;;;;-0.91;100.00;99389.84;5039779;28;20230;-80
2023/03/11 05:34:51;;;;;;;4.07;2.10;;;;;;;-0.77;100.00;99384.88;5040343;28;20248;-80
2023/03/11 05:37:18;;;;;;;9.43;2.03;;;;;;;-0.79;100.00;99384.00;5040349;28;20236;-80
2023/03/11 05:39:45;;;;;;;6.23;2.43;;;;;;;-0.97;100.00;99371.88;5039628;28;20240;-81
2023/03/11 05:42:11;;;;;;;7.20;2.30;;;;;;;-1.01;100.00;99362.44;5038978;28;20594;-80
2023/03/11 05:44:38;;;;;;;3.63;2.03;;;;;;;-1.15;100.00;99341.81;5039638;28;20216;-80
2023/03/11 05:47:04;;;;;;;5.20;2.40;;;;;;;-1.02;100.00;99337.66;5039109;28;20210;-80
2023/03/11 05:52:01;;;;;;;6.77;2.83;;;;;;;-1.00;100.00;99331.69;5094224;22;20244;-77
2023/03/11 05:54:29;;;;;;;3.23;1.90;;;;;;;-0.95;100.00;99336.88;5056492;28;20226;-76
2023/03/11 05:56:55;;;;;;;2.77;2.23;;;;;;;-0.83;100.00;99356.63;5055814;28;20729;-77
2023/03/11 05:59:22;;;;;;;5.10;1.93;;;;;;;-0.71;100.00;99367.00;5056121;28;20217;-77
2023/03/11 06:01:48;;;;;;;4.73;1.83;;;;;;;-0.81;100.00;99383.13;5055826;28;20232;-77
2023/03/11 06:04:14;;;;;;;6.53;2.03;;;;;;;-0.83;100.00;99408.72;5055836;28;21200;-78
2023/03/11 06:06:42;;;;;;;3.17;1.80;;;;;;;-0.84;100.00;99435.16;5055745;28;20205;-76
2023/03/11 06:09:12;;;;;;;2.60;1.60;;;;;;;-0.83;100.00;99452.28;5056221;28;20270;-76
2023/03/11 06:11:40;;;;;;;2.07;1.47;;;;;;;-0.85;100.00;99471.03;5055801;28;20275;-76
2023/03/11 06:14:06;;;;;;;3.50;1.30;;;;;;;-0.84;100.00;99509.47;5055679;28;20226;-77
2023/03/11 06:16:32;;;;;;;2.80;1.60;;;;;;;-0.87;100.00;99527.38;5055798;28;20224;-76
2023/03/11 06:18:59;;;;;;;4.43;1.23;;;;;;;-0.90;100.00;99573.44;5055944;28;20205;-77
2023/03/11 06:21:26;;;;;;;3.13;1.43;;;;;;;-0.90;100.00;99582.81;5055713;28;20229;-76
2023/03/11 06:23:52;;;;;;;4.63;1.40;;;;;;;-0.95;100.00;99598.13;5055879;28;20202;-76
2023/03/11 06:26:20;;;;;;;2.57;1.33;;;;;;;-0.93;100.00;99626.31;5054634;28;20631;-76
2023/03/11 06:28:49;;;;;;;5.23;1.47;;;;;;;-0.96;100.00;99645.06;5055635;28;20343;-77
2023/03/11 06:31:18;;;;;;;2.50;1.23;;;;;;;-0.89;100.00;99661.38;5055565;28;20230;-77
2023/03/11 06:33:44;;;;;;;1.80;0.90;;;;;;;-0.81;100.00;99670.91;5054949;28;20324;-76
2023/03/11 06:36:16;;;;;;;2.73;1.23;;;;;;;-0.91;99.63;99697.25;5055230;28;20209;-77
2023/03/11 06:38:42;;;;;;;3.83;1.10;;;;;;;-0.89;99.63;99703.25;5055650;28;20208;-76
2023/03/11 06:41:10;;;;;;;3.73;1.03;;;;;;;-0.80;99.10;99717.88;5054768;28;20236;-77
2023/03/11 06:43:36;;;;;;;5.20;1.20;;;;;;;-0.75;98.85;99736.78;5054940;28;20255;-76
2023/03/11 06:46:10;;;;;;;2.47;1.30;;;;;;;-0.75;99.21;99741.91;5054540;28;20205;-77
2023/03/11 06:48:36;;;;;;;1.83;1.30;;;;;;;-0.69;99.75;99741.13;5054965;28;20205;-76
2023/03/11 06:51:02;;;;;;;3.00;1.30;;;;;;;-0.64;99.22;99737.78;5054799;28;20259;-77
2023/03/11 06:53:30;;;;;;;2.10;1.20;;;;;;;-0.68;99.98;99742.84;5054600;28;20233;-77
2023/03/11 06:56:01;;;;;;;6.70;1.40;;;;;;;-0.59;99.70;99737.88;5054477;28;20205;-77
2023/03/11 06:58:28;;;;;;;1.87;1.30;;;;;;;-0.77;100.00;99740.13;5055604;28;20209;-79
2023/03/11 07:00:55;;;;;;;5.47;1.23;;;;;;;-0.84;100.00;99724.66;5055521;28;20778;-78
2023/03/11 07:03:22;;;;;;;5.43;1.47;;;;;;;-0.82;100.00;99707.59;5055876;28;20252;-78
2023/03/11 07:05:50;;;;;;;3.93;1.30;;;;;;;-0.83;100.00;99700.78;5055533;28;20201;-78
2023/03/11 07:08:17;;;;;;;5.87;1.30;;;;;;;-0.82;100.00;99694.81;5055707;28;20208;-78
2023/03/11 07:10:43;;;;;;;4.93;1.20;;;;;;;-0.80;100.00;99711.06;5056227;28;20229;-79
2023/03/11 07:13:09;;;;;;;2.93;1.30;;;;;;;-0.55;100.00;99720.84;5055518;28;20225;-78
2023/03/11 07:15:36;;;;;;;3.07;1.40;;;;;;;-0.60;100.00;99708.78;5055268;28;20259;-78
2023/03/11 07:18:02;;;;;;;7.37;1.50;;;;;;;-0.54;100.00;99725.09;5055755;28;20716;-78
2023/03/11 07:20:30;;;;;;;3.63;1.30;;;;;;;-0.52;100.00;99726.00;5056414;28;20230;-78
2023/03/11 07:22:56;;;;;;;4.00;1.30;;;;;;;-0.52;100.00;99731.13;5055984;28;20617;-78
2023/03/11 07:25:23;;;;;;;2.13;1.20;;;;;;;-0.58;100.00;99741.28;5056482;28;20267;-78
2023/03/11 07:27:49;;;;;;;4.03;1.57;;;;;;;-0.45;100.00;99753.44;5055284;28;20211;-79
2023/03/11 07:30:16;;;;;;;3.80;1.17;;;;;;;-0.32;100.00;99762.16;5057519;28;20229;-78
2023/03/11 07:32:42;;;;;;;2.47;1.03;;;;;;;-0.37;99.53;99781.75;5056431;28;20255;-79
2023/03/11 07:35:09;;;;;;;4.33;1.13;;;;;;;-0.45;99.60;99807.28;5056233;28;20229;-79
2023/03/11 07:37:36;;;;;;;1.30;1.00;;;;;;;-0.52;98.53;99823.41;5056605;28;20207;-78
2023/03/11 07:40:03;;;;;;;3.63;1.20;;;;;;;-0.41;98.88;99837.25;5057462;28;20260;-81
2023/03/11 07:42:29;;;;;;;2.83;1.45;;;;;;;-0.28;98.31;99856.25;5054781;28;20439;-79
2023/03/11 07:44:56;;;;;;;3.07;1.43;;;;;;;-0.14;97.86;99847.06;5055854;28;20217;-80
2023/03/11 07:47:23;;;;;;;2.07;1.50;;;;;;;-0.26;97.17;99882.78;5053486;28;20277;-81
2023/03/11 07:49:49;;;;;;;5.27;1.30;;;;;;;-0.17;98.04;99887.19;5051307;28;20229;-79
2023/03/11 07:52:16;;;;;;;3.17;1.30;;;;;;;-0.15;97.08;99890.66;5053757;28;20197;-80
2023/03/11 07:54:44;;;;;;;5.57;2.30;;;;;;;-0.26;97.71;99891.34;5051917;28;20276;-80
2023/03/11 07:57:15;;;;;;;2.77;1.20;;;;;;;-0.45;98.18;99895.31;5050901;28;20202;-80
2023/03/11 07:59:42;;;;;;;3.77;1.40;;;;;;;-0.53;97.85;99908.84;5052789;28;20209;-78
2023/03/11 08:02:09;;;;;;;6.63;1.33;;;;;;;-0.44;98.03;99904.72;5052771;28;20252;-79
2023/03/11 08:04:35;;;;;;;5.13;1.20;;;;;;;-0.48;97.90;99909.75;5053893;28;20750;-79
2023/03/11 08:07:02;;;;;;;3.17;1.67;;;;;;;-0.32;97.80;99910.88;5053642;28;20206;-79
2023/03/11 08:09:28;;;;;;;2.00;1.47;;;;;;;-0.41;97.49;99916.72;5054267;28;20195;-80
2023/03/11 08:11:56;;;;;;;4.63;1.50;;;;;;;-0.14;97.92;99906.06;5054388;28;20645;-81
2023/03/11 08:14:22;;;;;;;3.00;1.50;;;;;;;-0.24;97.31;99927.25;5052848;28;20235;-81
2023/03/11 08:16:49;;;;;;;4.07;1.43;;;;;;;-0.22;97.16;99939.28;5055185;28;20202;-81
2023/03/11 08:19:15;;;;;;;2.20;1.30;;;;;;;-0.06;96.69;99939.50;5054521;28;20231;-82
2023/03/11 08:21:41;;;;;;;1.83;1.30;;;;;;;-0.03;96.92;99950.69;5054794;28;20267;-78
2023/03/11 08:24:11;;;;;;;4.47;1.30;;;;;;;-0.25;96.14;99961.44;5049996;28;20212;-78
2023/03/11 08:26:38;;;;;;;2.10;1.70;;;;;;;-0.01;97.47;99955.84;5054879;28;20630;-81
2023/03/11 08:29:07;;;;;;;5.97;1.50;;;;;;;0.03;96.32;99969.59;5054592;28;20219;-79
2023/03/11 08:31:34;;;;;;;6.67;1.50;;;;;;;-0.16;95.97;99984.66;5055043;28;20241;-78
2023/03/11 08:34:03;;;;;;;3.33;1.30;;;;;;;-0.19;95.07;100009.44;5053346;28;20226;-78
2023/03/11 08:36:30;;;;;;;2.63;1.30;;;;;;;-0.30;95.07;100015.19;5033223;28;20202;-78
2023/03/11 08:38:57;;;;;;;3.87;1.50;;;;;;;-0.21;96.05;100017.94;5033152;28;20735;-78
2023/03/11 08:41:23;;;;;;;3.13;1.53;;;;;;;-0.08;95.04;100013.00;5033031;28;20284;-77
2023/03/11 08:43:51;;;;;;;3.47;1.67;;;;;;;-0.23;95.02;100029.88;5035195;28;20202;-77
2023/03/11 08:46:24;;;;;;;2.30;1.53;;;;;;;-0.29;95.26;100031.47;5034720;28;20242;-77
2023/03/11 08:48:50;;;;;;;3.40;1.60;;;;;;;-0.08;95.82;100026.72;5033810;28;20202;-78
2023/03/11 08:51:17;;;;;;;3.57;1.53;;;;;;;-0.01;95.66;100025.97;5032986;28;20790;-77
2023/03/11 08:53:44;;;;;;;4.67;1.53;;;;;;;0.15;96.52;100021.13;5033651;28;20253;-77
2023/03/11 08:56:10;;;;;;;2.07;1.40;;;;;;;0.10;95.04;100027.84;5033426;28;20206;-77
2023/03/11 08:58:37;;;;;;;5.33;1.70;;;;;;;0.18;95.39;100045.13;5033529;28;20210;-77
2023/03/11 09:01:04;;;;;;;1.77;1.60;;;;;;;0.28;95.00;100060.66;5033647;28;20322;-77
2023/03/11 09:03:34;;;;;;;11.73;2.37;;;;;;;0.27;93.64;100076.91;5047881;28;20193;-77
2023/03/11 09:06:03;;;;;;;2.90;1.70;;;;;;;0.14;94.40;100088.66;5052601;28;20593;-78
2023/03/11 09:08:30;;;;;;;8.50;1.80;;;;;;;0.20;93.93;100099.06;5053122;28;20202;-77
2023/03/11 09:10:56;;;;;;;4.70;1.60;;;;;;;0.17;93.75;100101.56;5053447;28;20222;-77
2023/03/11 09:13:23;;;;;;;2.53;1.50;;;;;;;0.21;94.78;100092.22;5053128;28;20205;-78
2023/03/11 09:15:50;;;;;;;1.63;1.37;;;;;;;0.16;93.37;100113.53;5053002;28;20255;-77
2023/03/11 09:18:18;;;;;;;2.57;1.37;;;;;;;0.30;94.63;100106.06;5052756;28;20232;-78
2023/03/11 09:20:46;;;;;;;5.23;1.70;;;;;;;0.32;94.44;100099.25;5052726;28;20712;-78
2023/03/11 09:23:15;;;;;;;3.73;1.60;;;;;;;0.32;94.42;100095.84;5053108;28;20255;-78
2023/03/11 09:25:41;;;;;;;3.50;1.90;;;;;;;0.44;94.67;100097.72;5052704;28;20213;-78
2023/03/11 09:28:08;;;;;;;1.93;1.60;;;;;;;0.31;94.34;100107.78;5053127;28;20236;-78
2023/03/11 09:30:35;;;;;;;3.70;2.13;;;;;;;0.34;93.37;100115.56;5052689;28;20590;-77
2023/03/11 09:33:01;;;;;;;3.47;1.90;;;;;;;0.51;93.79;100120.09;5051523;28;21083;-77
2023/03/11 09:35:29;;;;;;;2.87;1.37;;;;;;;0.46;92.07;100145.72;5053481;28;20240;-78
2023/03/11 09:37:56;;;;;;;3.47;1.53;;;;;;;0.46;91.67;100158.56;5051574;28;20263;-77
2023/03/11 09:40:26;;;;;;;1.47;1.37;;;;;;;0.57;91.26;100162.16;5053153;28;20263;-77
2023/03/11 09:43:03;;;;;;;5.33;2.50;;;;;;;0.55;91.81;100179.22;5052684;28;20210;-77
2023/03/11 09:45:45;;;;;;;3.37;1.93;;;;;;;0.53;91.21;100185.19;5052476;28;20209;-77
2023/03/11 09:48:21;;;;;;;3.17;1.50;;;;;;;0.54;91.26;100189.50;5051993;28;20210;-77
2023/03/11 09:50:52;;;;;;;2.17;1.60;;;;;;;0.66;90.56;100215.41;5051006;28;20237;-78
2023/03/11 09:53:33;;;;;;;2.33;1.60;;;;;;;0.56;91.11;100219.50;5052853;28;20205;-77
2023/03/11 09:56:01;;;;;;;3.47;2.23;;;;;;;0.68;91.58;100218.84;5052880;28;20586;-77
2023/03/11 09:58:37;;;;;;;2.53;1.70;;;;;;;0.64;91.59;100224.78;5054187;28;20214;-76
2023/03/11 10:01:14;;;;;;;6.47;1.83;;;;;;;0.72;90.08;100230.91;5052876;28;20225;-77
2023/03/11 10:03:41;;;;;;;3.90;2.13;;;;;;;0.89;89.92;100232.91;5054499;28;20200;-78
2023/03/11 10:06:15;;;;;;;2.80;1.73;;;;;;;1.02;89.74;100251.97;5054913;28;20198;-76
2023/03/11 10:08:57;;;;;;;1.60;1.50;;;;;;;0.84;88.95;100286.78;5054051;28;20258;-77
2023/03/11 10:11:36;;;;;;;4.83;3.33;;;;;;;0.94;88.21;100298.94;5054484;28;20317;-79
2023/03/11 10:14:17;;;;;;;2.13;1.40;;;;;;;0.93;88.49;100301.50;5055511;28;20279;-79
2023/03/11 10:16:54;;;;;;;3.43;1.70;;;;;;;0.98;86.80;100315.31;5054697;28;20197;-79
2023/03/11 10:19:30;;;;;;;2.60;1.60;;;;;;;0.75;86.04;100344.00;5053059;28;20752;-80
2023/03/11 10:22:06;;;;;;;2.90;1.60;;;;;;;0.61;87.28;100340.28;5055978;28;20219;-79
2023/03/11 10:24:50;;;;;;;5.77;1.60;;;;;;;0.70;87.38;100330.19;5053956;28;20197;-80
2023/03/11 10:27:21;;;;;;;2.77;1.57;;;;;;;0.79;86.60;100344.91;5054270;28;20246;-77
2023/03/11 10:29:55;;;;;;;3.63;1.87;;;;;;;0.87;86.92;100347.63;5052496;28;20255;-77
2023/03/11 10:32:27;;;;;;;2.03;1.73;;;;;;;0.96;87.35;100330.69;5055087;28;20199;-80
2023/03/11 10:34:59;;;;;;;3.80;3.43;;;;;;;1.10;88.35;100320.66;5054927;28;20609;-80
2023/03/11 10:37:29;;;;;;;1.50;1.20;;;;;;;0.93;86.34;100327.19;5053402;28;20198;-77
2023/03/11 10:40:04;;;;;;;3.83;1.50;;;;;;;0.87;85.20;100363.06;5054080;28;20665;-77
2023/03/11 10:42:33;;;;;;;3.20;1.50;;;;;;;1.03;87.01;100348.78;5053208;28;20259;-78
2023/03/11 10:45:00;;;;;;;7.70;1.63;;;;;;;0.79;85.16;100381.78;5056328;28;20263;-80
2023/03/11 10:47:26;;;;;;;3.63;1.77;;;;;;;0.89;85.93;100369.97;5052678;28;20197;-81
2023/03/11 10:49:53;;;;;;;7.00;5.17;;;;;;;1.11;86.03;100360.06;5055035;28;20680;-80
2023/03/11 10:52:20;;;;;;;9.10;5.63;;;;;;;1.21;85.40;100366.25;5056361;28;20191;-82
2023/03/11 10:54:48;;;;;;;12.73;7.53;;;;;;;1.41;86.44;100370.03;5052776;28;20225;-80
2023/03/11 10:57:25;;;;;;;12.20;7.00;;;;;;;1.59;86.85;100354.06;5056282;28;20244;-79
2023/03/11 10:59:53;;;;;;;4.93;3.70;;;;;;;1.70;85.42;100364.50;5052982;28;20204;-78
2023/03/11 11:02:24;;;;;;;6.80;5.87;;;;;;;1.84;83.67;100398.16;5054700;28;20201;-82
2023/03/11 11:05:05;;;;;;;8.73;5.17;;;;;;;1.89;82.34;100438.59;5053228;28;20305;-80
2023/03/11 11:07:34;;;;;;;4.77;3.43;;;;;;;2.02;83.12;100465.38;5052170;28;20197;-79
2023/03/11 11:10:18;;;;;;;3.43;1.90;;;;;;;1.97;81.25;100483.34;5055103;28;20210;-80
2023/03/11 11:12:55;;;;;;;4.40;2.60;;;;;;;2.03;81.05;100504.88;5053830;28;20683;-77
2023/03/11 11:15:22;;;;;;;8.97;5.70;;;;;;;2.21;81.85;100506.91;5054427;28;20283;-77
2023/03/11 11:17:49;;;;;;;5.10;2.50;;;;;;;2.14;81.21;100531.66;5051664;28;20225;-79
2023/03/11 11:20:19;;;;;;;5.13;2.50;;;;;;;2.15;79.84;100539.41;5054652;28;20274;-78
2023/03/11 11:22:51;;;;;;;6.33;2.97;;;;;;;2.19;79.48;100566.09;5053478;28;20197;-78
2023/03/11 11:25:26;;;;;;;9.93;5.70;;;;;;;2.27;79.53;100582.53;5053189;28;20208;-77
2023/03/11 11:27:56;;;;;;;2.97;2.50;;;;;;;2.28;79.00;100599.75;5051900;28;20220;-78
2023/03/11 11:30:23;;;;;;;6.37;2.37;;;;;;;2.41;78.39;100599.94;5054234;28;20225;-77
2023/03/11 11:32:52;;;;;;;3.07;1.47;;;;;;;2.22;77.13;100621.91;5053311;28;20203;-78